createdAt,value
2019-05-10T00:00:56.557Z,74.73
2019-05-10T00:03:42.033Z,76.22
2019-05-10T00:06:26.717Z,75.91
2019-05-10T00:08:53.039Z,75.58
2019-05-10T00:11:33.563Z,74.32
2019-05-10T00:14:32.951Z,73.49
2019-05-10T00:17:19.451Z,76.04
2019-05-10T00:19:46.118Z,75.71
2019-05-10T00:22:13.037Z,77.46
2019-05-10T00:24:39.606Z,75.72
2019-05-10T00:27:06.306Z,76.01
2019-05-10T00:29:32.985Z,74.98
2019-05-10T00:32:00.028Z,76.09
2019-05-10T00:34:26.641Z,77.38
2019-05-10T00:36:53.234Z,75.81
2019-05-10T00:39:20.278Z,75.63
2019-05-10T00:41:46.974Z,75.86
2019-05-10T00:44:13.661Z,76.63
2019-05-10T00:46:42.954Z,75.63
2019-05-10T00:49:09.609Z,76.88
2019-05-10T00:51:36.356Z,77.84
2019-05-10T00:54:03.201Z,77.82
2019-05-10T00:56:29.879Z,77.70
2019-05-10T00:58:56.586Z,78.95
2019-05-10T01:01:23.399Z,80.95
2019-05-10T01:03:50.055Z,79.19
2019-05-10T01:06:16.669Z,78.70
2019-05-10T01:08:43.543Z,77.32
2019-05-10T01:11:10.268Z,77.23
2019-05-10T01:13:36.828Z,78.71
2019-05-10T01:16:03.643Z,79.21
2019-05-10T01:18:30.490Z,77.21
2019-05-10T01:20:57.092Z,75.52
2019-05-10T01:23:23.759Z,77.59
2019-05-10T01:25:50.470Z,77.43
2019-05-10T01:28:17.144Z,76.05
2019-05-10T01:30:43.878Z,76.69
2019-05-10T01:33:10.662Z,80.02
2019-05-10T01:35:37.342Z,80.27
2019-05-10T01:38:03.971Z,80.32
2019-05-10T01:40:31.392Z,79.13
2019-05-10T01:42:58.210Z,78.41
2019-05-10T01:45:24.863Z,81.35
2019-05-10T01:47:51.572Z,81.22
2019-05-10T01:50:18.203Z,80.92
2019-05-10T01:52:44.830Z,82.33
2019-05-10T01:55:11.874Z,79.11
2019-05-10T01:57:39.735Z,79.58
2019-05-10T02:00:07.681Z,81.45
2019-05-10T02:02:34.492Z,82.34
2019-05-10T02:05:01.143Z,79.61
2019-05-10T02:07:27.837Z,78.90
2019-05-10T02:09:54.404Z,80.93
2019-05-10T02:12:21.146Z,80.47
2019-05-10T02:14:47.913Z,79.75
2019-05-10T02:17:14.574Z,80.15
2019-05-10T02:19:41.211Z,78.66
2019-05-10T02:22:07.941Z,79.60
2019-05-10T02:24:34.855Z,80.44
2019-05-10T02:27:01.536Z,79.98
2019-05-10T02:29:29.216Z,79.60
2019-05-10T02:31:55.810Z,79.24
2019-05-10T02:34:22.907Z,80.24
2019-05-10T02:36:49.758Z,80.77
2019-05-10T02:39:16.366Z,82.46
2019-05-10T02:41:43.330Z,83.09
2019-05-10T02:44:10.099Z,82.54
2019-05-10T02:46:36.672Z,82.54
2019-05-10T02:49:03.421Z,81.24
2019-05-10T02:51:30.942Z,82.60
2019-05-10T02:53:57.690Z,79.64
2019-05-10T02:56:30.203Z,79.64
2019-05-10T02:58:53.892Z,78.54
2019-05-10T03:01:22.070Z,78.08
2019-05-10T03:03:50.445Z,77.51
2019-05-10T03:06:18.580Z,78.06
2019-05-10T03:08:46.375Z,80.74
2019-05-10T03:11:13.451Z,79.49
2019-05-10T03:13:42.165Z,81.88
2019-05-10T03:16:10.073Z,82.63
2019-05-10T03:18:37.652Z,78.57
2019-05-10T03:21:06.460Z,80.80
2019-05-10T03:23:33.220Z,79.64
2019-05-10T03:26:00.401Z,77.67
2019-05-10T03:28:27.481Z,78.45
2019-05-10T03:30:54.094Z,79.85
2019-05-10T03:33:20.894Z,80.87
2019-05-10T03:35:47.591Z,78.57
2019-05-10T03:38:14.266Z,78.41
2019-05-10T03:40:41.032Z,78.39
2019-05-10T03:43:07.647Z,79.67
2019-05-10T03:45:34.460Z,80.15
2019-05-10T03:48:01.944Z,77.70
2019-05-10T03:50:28.525Z,81.12
2019-05-10T03:52:55.191Z,79.87
2019-05-10T03:55:21.745Z,78.28
2019-05-10T03:57:48.502Z,79.56
2019-05-10T04:00:15.232Z,80.69
2019-05-10T04:02:42.440Z,80.43
2019-05-10T04:05:10.924Z,80.19
2019-05-10T04:07:37.498Z,78.14
2019-05-10T04:10:05.124Z,78.22
2019-05-10T04:12:31.944Z,81.18
2019-05-10T04:14:58.792Z,78.29
2019-05-10T04:17:25.539Z,79.31
2019-05-10T04:19:52.325Z,77.75
2019-05-10T04:22:19.429Z,79.84
2019-05-10T04:24:46.638Z,80.64
2019-05-10T04:27:30.653Z,79.67
2019-05-10T04:29:42.077Z,79.00
2019-05-10T04:32:08.794Z,79.49
2019-05-10T04:34:35.406Z,79.35
2019-05-10T04:37:02.092Z,79.49
2019-05-10T04:39:28.723Z,79.66
2019-05-10T04:41:55.423Z,79.85
2019-05-10T04:44:22.407Z,78.18
2019-05-10T04:46:49.025Z,79.16
2019-05-10T04:49:16.020Z,81.26
2019-05-10T04:51:42.680Z,81.69
2019-05-10T04:54:09.617Z,80.47
2019-05-10T04:56:36.306Z,80.92
2019-05-10T04:59:03.039Z,81.30
2019-05-10T05:01:29.712Z,81.09
2019-05-10T05:03:56.327Z,81.25
2019-05-10T05:06:24.065Z,79.92
2019-05-10T05:08:50.682Z,80.56
2019-05-10T05:11:17.327Z,81.58
2019-05-10T05:13:43.906Z,81.84
2019-05-10T05:16:10.755Z,78.72
2019-05-10T05:18:37.496Z,79.65
2019-05-10T05:21:04.308Z,81.10
2019-05-10T05:23:30.927Z,80.10
2019-05-10T05:25:57.881Z,81.65
2019-05-10T05:28:24.776Z,82.06
2019-05-10T05:30:51.345Z,80.77
2019-05-10T05:33:18.251Z,81.87
2019-05-10T05:35:44.947Z,81.34
2019-05-10T05:38:11.585Z,81.99
2019-05-10T05:40:38.202Z,80.71
2019-05-10T05:43:08.332Z,81.84
2019-05-10T05:45:35.330Z,80.32
2019-05-10T05:48:02.025Z,80.76
2019-05-10T05:50:28.681Z,80.62
2019-05-10T05:52:55.470Z,80.47
2019-05-10T05:55:23.031Z,79.83
2019-05-10T05:57:50.193Z,80.76
2019-05-10T06:00:16.978Z,80.27
2019-05-10T06:02:45.088Z,79.80
2019-05-10T06:05:13.329Z,79.80
2019-05-10T06:07:42.378Z,80.33
2019-05-10T06:10:16.409Z,80.61
2019-05-10T06:12:39.192Z,79.95
2019-05-10T06:15:06.182Z,80.59
2019-05-10T06:17:32.883Z,80.96
2019-05-10T06:20:01.026Z,79.49
2019-05-10T06:22:28.043Z,81.27
2019-05-10T06:24:54.919Z,80.50
2019-05-10T06:27:21.531Z,80.55
2019-05-10T06:29:48.241Z,81.11
2019-05-10T06:32:15.024Z,81.01
2019-05-10T06:34:41.647Z,81.40
2019-05-10T06:37:08.267Z,81.98
2019-05-10T06:39:34.945Z,81.19
2019-05-10T06:42:03.339Z,81.82
2019-05-10T06:44:33.158Z,80.38
2019-05-10T06:47:02.135Z,81.77
2019-05-10T06:49:28.943Z,82.42
2019-05-10T06:51:55.511Z,83.26
2019-05-10T06:54:22.086Z,81.96
2019-05-10T06:56:48.738Z,82.50
2019-05-10T06:59:19.433Z,82.51
2019-05-10T07:01:45.821Z,81.94
2019-05-10T07:04:12.408Z,83.28
2019-05-10T07:06:39.995Z,82.08
2019-05-10T07:09:06.839Z,81.08
2019-05-10T07:11:33.517Z,82.21
2019-05-10T07:14:00.237Z,81.01
2019-05-10T07:16:28.326Z,82.30
2019-05-10T07:19:00.333Z,81.99
2019-05-10T07:21:23.498Z,80.36
2019-05-10T07:23:50.154Z,82.36
2019-05-10T07:26:24.812Z,81.51
2019-05-10T07:28:46.321Z,81.27
2019-05-10T07:31:13.253Z,81.10
2019-05-10T07:33:40.262Z,80.61
2019-05-10T07:36:14.444Z,79.06
2019-05-10T07:38:36.806Z,78.06
2019-05-10T07:41:03.723Z,79.76
2019-05-10T07:43:30.390Z,80.17
2019-05-10T07:45:58.819Z,80.85
2019-05-10T07:48:27.615Z,80.20
2019-05-10T07:50:55.908Z,80.46
2019-05-10T07:53:25.174Z,80.17
2019-05-10T07:55:51.286Z,78.60
2019-05-10T07:58:19.422Z,77.87
2019-05-10T08:00:48.379Z,77.96
2019-05-10T08:03:23.339Z,78.24
2019-05-10T08:05:54.876Z,77.79
2019-05-10T08:08:14.650Z,78.07
2019-05-10T08:10:41.281Z,77.85
2019-05-10T08:13:08.562Z,78.45
2019-05-10T08:15:35.399Z,78.11
2019-05-10T08:18:02.265Z,78.11
2019-05-10T08:20:43.741Z,77.50
2019-05-10T08:22:59.025Z,77.39
2019-05-10T08:25:28.949Z,76.94
2019-05-10T08:27:55.463Z,77.81
2019-05-10T08:30:34.123Z,76.18
2019-05-10T08:33:09.133Z,76.00
2019-05-10T08:35:29.293Z,74.86
2019-05-10T08:37:55.983Z,75.98
2019-05-10T08:40:28.123Z,76.18
2019-05-10T08:43:00.205Z,77.30
2019-05-10T08:45:19.541Z,78.44
2019-05-10T08:47:46.250Z,78.18
2019-05-10T08:50:28.894Z,78.87
2019-05-10T08:52:42.454Z,78.97
2019-05-10T08:55:12.102Z,77.20
2019-05-10T08:57:44.569Z,76.86
2019-05-10T09:00:09.255Z,78.06
2019-05-10T09:02:36.101Z,76.24
2019-05-10T09:05:03.435Z,77.55
2019-05-10T09:07:34.977Z,75.58
2019-05-10T09:09:58.910Z,76.08
2019-05-10T09:12:25.582Z,76.38
2019-05-10T09:14:57.537Z,76.24
2019-05-10T09:17:23.541Z,76.62
2019-05-10T09:19:51.717Z,75.41
2019-05-10T09:22:18.222Z,75.39
2019-05-10T09:24:48.439Z,74.79
2019-05-10T09:27:14.386Z,73.85
2019-05-10T09:29:43.084Z,75.74
2019-05-10T09:32:12.356Z,77.76
2019-05-10T09:34:38.943Z,77.73
2019-05-10T09:37:08.186Z,78.94
2019-05-10T09:39:34.458Z,77.91
2019-05-10T09:42:07.612Z,77.71
2019-05-10T09:44:30.281Z,77.37
2019-05-10T09:46:56.990Z,75.91
2019-05-10T09:49:23.775Z,74.52
2019-05-10T09:51:52.523Z,74.64
2019-05-10T09:54:23.293Z,73.67
2019-05-10T09:56:52.098Z,76.35
2019-05-10T09:59:17.916Z,74.97
2019-05-10T10:01:44.625Z,72.62
2019-05-10T10:04:12.276Z,72.37
2019-05-10T10:06:41.854Z,71.34
2019-05-10T10:09:10.836Z,72.86
2019-05-10T10:11:36.395Z,71.79
2019-05-10T10:14:03.203Z,71.35
2019-05-10T10:16:30.880Z,72.49
2019-05-10T10:18:57.504Z,71.83
2019-05-10T10:21:30.811Z,71.66
2019-05-10T10:23:52.909Z,70.75
2019-05-10T10:26:22.338Z,71.05
2019-05-10T10:28:49.713Z,71.77
2019-05-10T10:31:27.088Z,71.27
2019-05-10T10:33:54.952Z,71.99
2019-05-10T10:36:13.910Z,71.14
2019-05-10T10:38:45.222Z,69.98
2019-05-10T10:41:09.017Z,70.04
2019-05-10T10:43:37.208Z,68.81
2019-05-10T10:46:04.572Z,67.60
2019-05-10T10:48:31.262Z,68.75
2019-05-10T10:50:58.741Z,70.54
2019-05-10T10:53:28.057Z,70.49
2019-05-10T10:55:58.269Z,70.73
2019-05-10T10:58:22.753Z,70.12
2019-05-10T11:00:49.714Z,71.67
2019-05-10T11:03:16.292Z,70.74
2019-05-10T11:05:42.978Z,70.07
2019-05-10T11:08:11.357Z,69.69
2019-05-10T11:10:38.101Z,67.12
2019-05-10T11:13:12.136Z,67.50
2019-05-10T11:15:36.145Z,68.07
2019-05-10T11:18:03.124Z,72.21
2019-05-10T11:20:31.814Z,72.74
2019-05-10T11:22:58.715Z,72.28
2019-05-10T11:25:25.731Z,73.43
2019-05-10T11:27:53.890Z,74.00
2019-05-10T11:30:21.542Z,74.39
2019-05-10T11:32:48.139Z,75.35
2019-05-10T11:35:19.012Z,77.37
2019-05-10T11:37:45.618Z,79.00
2019-05-10T11:40:18.185Z,80.12
2019-05-10T11:42:43.800Z,79.07
2019-05-10T11:45:11.151Z,78.59
2019-05-10T11:47:37.947Z,78.07
2019-05-10T11:50:06.623Z,78.81
2019-05-10T11:52:34.772Z,77.20
2019-05-10T11:55:02.423Z,76.64
2019-05-10T11:57:32.924Z,75.77
2019-05-10T11:59:58.150Z,75.12
2019-05-10T12:02:37.381Z,73.20
2019-05-10T12:04:53.628Z,74.51
2019-05-10T12:07:27.529Z,74.28
2019-05-10T12:12:29.633Z,73.69
2019-05-10T12:14:53.735Z,73.29
2019-05-10T12:17:18.220Z,72.30
2019-05-10T12:19:50.484Z,70.35
2019-05-10T12:22:15.939Z,69.86
2019-05-10T12:24:53.826Z,67.70
2019-05-10T12:26:16.485Z,75.30
2019-05-10T12:27:22.583Z,66.88
2019-05-10T12:29:39.821Z,66.12
2019-05-10T12:32:06.665Z,64.03
2019-05-10T12:34:33.621Z,62.05
2019-05-10T12:37:03.807Z,61.33
2019-05-10T12:39:30.981Z,58.17
2019-05-10T12:41:57.823Z,58.72
2019-05-10T12:44:24.453Z,56.15
2019-05-10T12:46:54.186Z,57.67
2019-05-10T12:49:21.476Z,59.82
2019-05-10T12:51:48.158Z,61.54
2019-05-10T12:54:18.516Z,63.81
2019-05-10T12:56:46.082Z,64.04
2019-05-10T12:59:13.314Z,62.40
2019-05-10T13:01:42.241Z,64.28
2019-05-10T13:04:15.148Z,64.26
2019-05-10T13:06:37.627Z,64.16
2019-05-10T13:09:05.535Z,62.17
2019-05-10T13:11:32.240Z,61.56
2019-05-10T13:14:00.989Z,62.50
2019-05-10T13:16:30.173Z,61.02
2019-05-10T13:18:59.016Z,60.99
2019-05-10T13:21:25.717Z,61.71
2019-05-10T13:23:55.342Z,58.71
2019-05-10T13:26:22.424Z,59.19
2019-05-10T13:28:49.336Z,57.53
2019-05-10T13:31:16.311Z,56.28
2019-05-10T13:33:44.375Z,55.68
2019-05-10T13:36:12.641Z,55.97
2019-05-10T13:38:43.131Z,53.31
2019-05-10T13:41:07.910Z,54.04
2019-05-10T13:43:36.956Z,54.96
2019-05-10T13:46:03.641Z,55.77
2019-05-10T13:48:30.304Z,55.18
2019-05-10T13:50:57.401Z,56.42
2019-05-10T13:53:24.113Z,53.11
2019-05-10T13:55:50.878Z,55.13
2019-05-10T13:58:17.470Z,56.61
2019-05-10T14:00:44.309Z,56.96
2019-05-10T14:03:13.533Z,54.93
2019-05-10T14:05:40.597Z,56.07
2019-05-10T14:08:08.518Z,54.92
2019-05-10T14:10:35.332Z,51.58
2019-05-10T14:13:03.824Z,54.79
2019-05-10T14:15:33.413Z,58.29
2019-05-10T14:18:00.086Z,56.53
2019-05-10T14:20:27.670Z,56.88
2019-05-10T14:22:56.222Z,56.80
2019-05-10T14:25:23.453Z,55.72
2019-05-10T14:27:50.143Z,57.25
2019-05-10T14:30:17.530Z,54.89
2019-05-10T14:32:44.412Z,53.92
2019-05-10T14:35:11.328Z,55.00
2019-05-10T14:37:38.101Z,53.44
2019-05-10T14:40:05.347Z,55.88
2019-05-10T14:42:33.651Z,56.58
2019-05-10T14:45:00.498Z,57.27
2019-05-10T14:47:27.206Z,58.80
2019-05-10T14:49:53.831Z,57.46
2019-05-10T14:52:22.700Z,59.37
2019-05-10T14:54:49.960Z,59.00
2019-05-10T14:57:17.775Z,58.91
2019-05-10T14:59:47.694Z,58.28
2019-05-10T15:02:16.783Z,56.30
2019-05-10T15:04:45.047Z,56.65
2019-05-10T15:07:14.484Z,55.22
2019-05-10T15:09:40.268Z,56.68
2019-05-10T15:12:10.098Z,55.28
2019-05-10T15:14:35.589Z,55.63
2019-05-10T15:17:02.247Z,56.60
2019-05-10T15:19:31.331Z,56.19
2019-05-10T15:21:58.365Z,55.83
2019-05-10T15:24:24.991Z,56.17
2019-05-10T15:26:51.724Z,54.54
2019-05-10T15:29:22.399Z,55.37
2019-05-10T15:31:47.056Z,55.89
2019-05-10T15:34:13.705Z,52.95
2019-05-10T15:36:40.336Z,55.25
2019-05-10T15:39:07.195Z,54.53
2019-05-10T15:41:34.271Z,54.66
2019-05-10T15:44:01.885Z,55.89
2019-05-10T15:46:39.877Z,55.49
2019-05-10T15:48:57.395Z,55.39
2019-05-10T15:51:35.753Z,53.90
2019-05-10T15:54:03.901Z,54.43
2019-05-10T15:56:22.294Z,55.22
2019-05-10T15:58:49.059Z,56.18
2019-05-10T16:01:26.358Z,55.69
2019-05-10T16:03:44.316Z,52.65
2019-05-10T16:06:11.058Z,52.21
2019-05-10T16:08:37.686Z,50.09
2019-05-10T16:11:04.646Z,52.06
2019-05-10T16:13:31.297Z,52.13
2019-05-10T16:15:59.511Z,51.33
2019-05-10T16:18:26.305Z,52.77
2019-05-10T16:20:53.201Z,52.03
2019-05-10T16:23:19.774Z,52.36
2019-05-10T16:25:48.582Z,51.36
2019-05-10T16:28:15.446Z,50.57
2019-05-10T16:30:47.021Z,49.84
2019-05-10T16:33:15.599Z,51.68
2019-05-10T16:35:44.280Z,53.14
2019-05-10T16:38:10.209Z,49.88
2019-05-10T16:40:37.266Z,51.29
2019-05-10T16:43:06.775Z,50.25
2019-05-10T16:45:32.563Z,48.94
2019-05-10T16:47:59.248Z,50.99
2019-05-10T16:50:31.260Z,50.66
2019-05-10T16:52:59.313Z,51.27
2019-05-10T16:55:23.118Z,55.27
2019-05-10T16:57:49.761Z,57.67
2019-05-10T17:00:16.956Z,56.40
2019-05-10T17:02:44.021Z,57.40
2019-05-10T17:05:15.206Z,57.57
2019-05-10T17:07:39.369Z,58.48
2019-05-10T17:10:06.788Z,58.95
2019-05-10T17:12:33.461Z,58.25
2019-05-10T17:15:03.008Z,60.26
2019-05-10T17:17:31.273Z,58.59
2019-05-10T17:19:58.727Z,57.73
2019-05-10T17:22:25.628Z,57.50
2019-05-10T17:24:57.072Z,57.68
2019-05-10T17:27:21.154Z,58.79
2019-05-10T17:29:49.616Z,59.01
2019-05-10T17:32:18.813Z,58.49
2019-05-10T17:34:46.198Z,59.21
2019-05-10T17:37:12.774Z,58.35
2019-05-10T17:39:39.381Z,59.68
2019-05-10T17:42:06.212Z,59.09
2019-05-10T17:44:33.162Z,59.82
2019-05-10T17:46:59.784Z,60.78
2019-05-10T17:49:26.621Z,59.94
2019-05-10T17:51:53.529Z,60.30
2019-05-10T17:54:20.151Z,60.72
2019-05-10T17:56:47.112Z,60.48
2019-05-10T17:59:13.959Z,62.05
2019-05-10T18:01:40.884Z,61.51
2019-05-10T18:04:08.544Z,62.43
2019-05-10T18:06:35.147Z,62.72
2019-05-10T18:09:01.819Z,62.41
2019-05-10T18:11:30.392Z,63.46
2019-05-10T18:14:00.281Z,64.19
2019-05-10T18:16:41.939Z,63.48
2019-05-10T18:19:13.432Z,64.27
2019-05-10T18:22:00.715Z,64.57
2019-05-10T18:24:35.810Z,65.17
2019-05-10T18:27:12.066Z,65.13
2019-05-10T18:29:59.634Z,64.73
2019-05-10T18:32:50.151Z,65.53
2019-05-10T18:35:34.789Z,65.94
2019-05-10T18:38:16.858Z,65.77
2019-05-10T18:41:05.385Z,67.25
2019-05-10T18:43:35.261Z,67.56
2019-05-10T18:46:02.978Z,68.41
2019-05-10T18:48:38.015Z,68.10
2019-05-10T18:51:04.677Z,69.33
2019-05-10T18:53:31.466Z,68.94
2019-05-10T18:55:58.393Z,68.59
2019-05-10T18:58:29.095Z,68.71
2019-05-10T19:01:00.679Z,69.27
2019-05-10T19:03:28.080Z,69.69
2019-05-10T19:05:54.257Z,70.57
2019-05-10T19:08:21.063Z,70.77
2019-05-10T19:10:47.876Z,70.13
2019-05-10T19:13:15.015Z,69.72
2019-05-10T19:15:46.260Z,70.95
2019-05-10T19:18:10.701Z,70.95
2019-05-10T19:20:37.403Z,71.68
2019-05-10T19:23:05.526Z,71.02
2019-05-10T19:25:32.312Z,70.91
2019-05-10T19:27:59.091Z,71.63
2019-05-10T19:30:25.787Z,73.05
2019-05-10T19:32:56.225Z,72.12
2019-05-10T19:35:21.219Z,72.12
2019-05-10T19:37:47.826Z,73.57
2019-05-10T19:40:14.854Z,73.26
2019-05-10T19:42:43.093Z,72.46
2019-05-10T19:45:12.795Z,74.05
2019-05-10T19:47:39.275Z,74.52
2019-05-10T19:50:07.264Z,73.99
2019-05-10T19:52:33.935Z,73.72
2019-05-10T19:55:00.716Z,73.41
2019-05-10T19:57:29.569Z,73.72
2019-05-10T19:59:56.312Z,73.12
2019-05-10T20:02:24.336Z,74.57
2019-05-10T20:04:50.986Z,74.24
2019-05-10T20:07:19.113Z,74.17
2019-05-10T20:09:46.817Z,74.66
2019-05-10T20:12:13.608Z,74.57
2019-05-10T20:14:41.248Z,74.10
2019-05-10T20:17:07.880Z,74.21
2019-05-10T20:19:34.472Z,74.58
2019-05-10T20:22:01.268Z,74.77
2019-05-10T20:24:27.919Z,75.25
2019-05-10T20:26:55.024Z,75.85
2019-05-10T20:29:21.969Z,76.07
2019-05-10T20:31:48.565Z,75.80
2019-05-10T20:34:15.230Z,76.55
2019-05-10T20:36:41.895Z,75.34
2019-05-10T20:39:08.625Z,75.75
2019-05-10T20:41:35.432Z,76.81
2019-05-10T20:44:02.123Z,76.57
2019-05-10T20:46:28.985Z,76.86
2019-05-10T20:48:55.790Z,77.31
2019-05-10T20:51:22.438Z,77.12
2019-05-10T20:53:50.268Z,75.54
2019-05-10T20:56:18.389Z,76.77
2019-05-10T20:58:45.228Z,77.11
2019-05-10T21:01:13.500Z,77.29
2019-05-10T21:03:40.295Z,76.68
2019-05-10T21:06:07.078Z,78.35
2019-05-10T21:08:33.754Z,78.66
2019-05-10T21:11:00.965Z,79.30
2019-05-10T21:13:27.662Z,77.79
2019-05-10T21:15:54.301Z,77.82
2019-05-10T21:18:21.075Z,77.49
2019-05-10T21:20:47.673Z,76.17
2019-05-10T21:23:14.259Z,75.75
2019-05-10T21:25:40.976Z,76.14
2019-05-10T21:28:07.877Z,75.93
2019-05-10T21:30:34.637Z,75.72
2019-05-10T21:33:01.466Z,75.81
2019-05-10T21:35:28.327Z,76.53
2019-05-10T21:37:54.986Z,77.25
2019-05-10T21:40:21.882Z,78.40
2019-05-10T21:42:48.913Z,78.15
2019-05-10T21:45:15.595Z,79.47
2019-05-10T21:47:51.066Z,78.20
2019-05-10T21:50:11.958Z,78.62
2019-05-10T21:52:40.841Z,78.81
2019-05-10T21:55:07.524Z,78.80
2019-05-10T21:57:34.427Z,78.89
2019-05-10T22:00:01.045Z,78.15
2019-05-10T22:02:27.715Z,78.94
2019-05-10T22:04:54.402Z,79.82
2019-05-10T22:07:21.150Z,80.52
2019-05-10T22:09:47.847Z,81.10
2019-05-10T22:12:14.567Z,81.11
2019-05-10T22:14:41.214Z,80.49
2019-05-10T22:17:07.912Z,79.48
2019-05-10T22:19:34.760Z,79.94
2019-05-10T22:22:01.474Z,80.51
2019-05-10T22:24:28.118Z,80.71
2019-05-10T22:26:56.798Z,80.88
2019-05-10T22:29:23.450Z,80.80
2019-05-10T22:31:50.063Z,80.69
2019-05-10T22:34:16.857Z,79.91
2019-05-10T22:36:44.448Z,79.87
2019-05-10T22:39:11.264Z,79.33
2019-05-10T22:41:37.985Z,80.04
2019-05-10T22:44:04.619Z,78.54
2019-05-10T22:46:31.674Z,78.26
2019-05-10T22:48:58.256Z,77.92
2019-05-10T22:51:24.938Z,79.20
2019-05-10T22:53:59.721Z,79.45
2019-05-10T22:56:20.464Z,78.94
2019-05-10T22:58:47.190Z,78.21
2019-05-10T23:01:13.822Z,78.72
2019-05-10T23:03:40.485Z,80.96
2019-05-10T23:06:07.435Z,80.60
2019-05-10T23:08:34.085Z,81.09
2019-05-10T23:11:01.257Z,81.10
2019-05-10T23:13:27.949Z,80.28
2019-05-10T23:15:54.555Z,79.09
2019-05-10T23:18:21.768Z,80.03
2019-05-10T23:20:48.490Z,80.92
2019-05-10T23:23:15.544Z,80.35
2019-05-10T23:25:42.408Z,80.20
2019-05-10T23:28:09.098Z,79.54
2019-05-10T23:30:36.082Z,78.87
2019-05-10T23:33:02.727Z,78.28
2019-05-10T23:35:29.558Z,78.37
2019-05-10T23:37:56.265Z,79.97
2019-05-10T23:40:22.936Z,79.87
2019-05-10T23:42:49.936Z,79.23
2019-05-10T23:45:16.551Z,78.46
2019-05-10T23:47:43.248Z,77.79
2019-05-10T23:50:10.217Z,78.33
2019-05-10T23:52:36.830Z,78.76
2019-05-10T23:55:04.745Z,78.93
2019-05-10T23:57:31.398Z,79.38
2019-05-10T23:59:59.472Z,79.81
